Flight Track Log - Related Links

Times and Time Zones

All times are in EDT time to prevent confusion due to time zone crossing. See the SWA3725 flight status page for this flight to view local times or setup timezone preferences in your user account.

Time Position Orientation Groundspeed Altitude Reporting Facility
EDT Latitude Longitude Course Direction KTS MPH feet Rate Location/Type
Mon 10:39:29 AM 38.7667 -90.4000 237° Southwest 155 178 2,100  Level Gateway (St. Louis) TRACON
Mon 10:40:23 AM 38.7500 -90.4333 237° Southwest 206 237 3,500 1,500 Climbing Gateway (St. Louis) TRACON
Mon 10:40:45 AM 38.7339 -90.4514 221° Southwest 217 250 4,000 2,786 Climbing Kansas City Center
Mon 10:41:47 AM 38.6722 -90.4872 204° Southwest 236 272 7,400 3,435 Climbing Kansas City Center
Mon 10:42:49 AM 38.6042 -90.5275 205° Southwest 257 296 11,100 3,268 Climbing Kansas City Center
Mon 10:43:50 AM 38.5078 -90.5828 204° Southwest 324 373 14,100 2,976 Climbing Kansas City Center
Mon 10:44:52 AM 38.4133 -90.6364 204° Southwest 354 407 17,200 2,878 Climbing Kansas City Center
Mon 10:45:53 AM 38.3214 -90.6894 204° Southwest 370 426 20,000 2,732 Climbing Kansas City Center
Mon 10:46:55 AM 38.2203 -90.7472 204° Southwest 390 449 22,800 2,565 Climbing Kansas City Center
Mon 10:47:57 AM 38.1164 -90.7997 202° Southwest 399 459 25,300 2,146 Climbing Kansas City Center
Mon 10:48:58 AM 38.0047 -90.8422 197° South 413 475 27,200 1,854 Climbing Kansas City Center
Mon 10:50:00 AM 37.8911 -90.8886 198° South 425 489 29,100 2,293 Climbing Kansas City Center
Mon 10:51:01 AM 37.7528 -90.9428 197° South 433 498 31,900 1,415 Climbing Kansas City Center
Mon 10:52:03 AM 37.6372 -90.9889 198° South 435 501 32,000 48 Climbing Kansas City Center
Mon 10:53:05 AM 37.5086 -91.0422 198° South 440 506 32,000  Level Kansas City Center
Mon 10:54:06 AM 37.3906 -91.0925 199° South 444 511 32,000  Level Kansas City Center
Mon 10:55:08 AM 37.2722 -91.1419 198° South 445 512 32,000  Level Kansas City Center
Mon 10:56:09 AM 37.1531 -91.1919 198° South 448 516 32,000  Level Kansas City Center
Mon 10:57:11 AM 37.0342 -91.2392 198° South 446 513 32,000  Level Kansas City Center
Mon 10:58:13 AM 36.9147 -91.2875 198° South 447 514 32,000  Level Kansas City Center
Mon 10:58:45 AM 36.8408 -91.3186 199° South 445 512 32,000  Level Memphis Center
Mon 10:59:45 AM 36.7194 -91.3692 198° South 451 519 32,000  Level Memphis Center
Mon 11:00:16 AM 36.6717 -91.3875 197° South 458 527 32,000  Level Kansas City Center
Mon 11:00:45 AM 36.5981 -91.4219 201° Southwest 457 526 32,000  Level Memphis Center
Mon 11:01:45 AM 36.4789 -91.4692 198° South 457 526 32,000  Level Memphis Center
Mon 11:02:45 AM 36.3556 -91.5192 198° South 465 535 32,000  Level Memphis Center
Mon 11:03:45 AM 36.2383 -91.5664 198° South 460 529 32,000  Level Memphis Center
Mon 11:04:45 AM 36.1169 -91.6133 197° South 460 529 32,000  Level Memphis Center
Mon 11:05:45 AM 35.9975 -91.6603 198° South 460 529 32,000  Level Memphis Center
Mon 11:06:45 AM 35.8825 -91.7072 198° South 449 517 32,000  Level Memphis Center
Mon 11:07:45 AM 35.7631 -91.7564 198° South 443 510 32,000  Level Memphis Center
Mon 11:08:45 AM 35.6478 -91.8031 198° South 449 517 32,000 250 Level Memphis Center
Mon 11:09:45 AM 35.5283 -91.8469 197° South 444 511 32,500 1,000 Climbing Memphis Center
Mon 11:10:45 AM 35.4111 -91.8933 198° South 444 511 34,000 750 Climbing Memphis Center
Mon 11:11:45 AM 35.2936 -91.9419 199° South 444 511 34,000 350 Level Memphis Center
Mon 11:12:45 AM 35.1742 -91.9881 198° South 444 511 34,700 1,150 Climbing Memphis Center
Mon 11:13:45 AM 35.0544 -92.0339 197° South 444 511 36,300 1,300 Climbing Memphis Center
Mon 11:14:45 AM 34.9517 -92.0750 198° South 444 511 37,300 850 Climbing Memphis Center
Mon 11:15:45 AM 34.8344 -92.1181 197° South 444 511 38,000 350 Climbing Memphis Center
Mon 11:16:45 AM 34.7169 -92.1661 199° South 444 511 38,000  Level Memphis Center
Mon 11:17:45 AM 34.5953 -92.1964 192° South 444 511 38,000  Level Memphis Center
Mon 11:18:45 AM 34.4719 -92.2189 189° South 439 505 38,000  Level Memphis Center
Mon 11:19:45 AM 34.3486 -92.2414 189° South 450 518 38,000  Level Memphis Center
Mon 11:20:45 AM 34.2269 -92.2714 192° South 450 518 38,000  Level Memphis Center
Mon 11:21:45 AM 34.1056 -92.2889 187° South 450 518 38,000  Level Memphis Center
Mon 11:23:46 AM 33.8661 -92.3358 189° South 446 513 38,000  Level Fort Worth Center
Mon 11:24:46 AM 33.7419 -92.3581 188° South 446 513 38,000  Level Fort Worth Center
Mon 11:25:46 AM 33.6153 -92.3778 187° South 451 519 38,000  Level Fort Worth Center
Mon 11:26:46 AM 33.4931 -92.3997 189° South 451 519 38,000  Level Fort Worth Center
Mon 11:27:46 AM 33.3750 -92.4214 189° South 451 519 38,000  Level Fort Worth Center
Mon 11:28:46 AM 33.2486 -92.4458 189° South 445 512 38,000  Level Fort Worth Center
Mon 11:29:46 AM 33.1286 -92.4675 189° South 450 518 38,000  Level Fort Worth Center
Mon 11:30:46 AM 33.0042 -92.4892 188° South 450 518 38,000  Level Fort Worth Center
Mon 11:31:46 AM 32.8797 -92.5108 188° South 445 512 38,000  Level Fort Worth Center
Mon 11:32:46 AM 32.7575 -92.5325 188° South 445 512 38,000  Level Fort Worth Center
Mon 11:33:46 AM 32.6353 -92.5539 188° South 445 512 38,000  Level Fort Worth Center
Mon 11:34:03 AM 32.5867 -92.5672 193° South 447 514 38,000  Level Houston Center
Mon 11:35:05 AM 32.4636 -92.5889 188° South 447 514 38,000  Level Houston Center
Mon 11:36:07 AM 32.3417 -92.6117 189° South 446 513 38,000  Level Houston Center
Mon 11:37:09 AM 32.2189 -92.6333 188° South 446 513 38,000  Level Houston Center
Mon 11:38:11 AM 32.0969 -92.6556 189° South 446 513 38,000  Level Houston Center
Mon 11:39:13 AM 31.9753 -92.6808 190° South 445 512 38,000  Level Houston Center
Mon 11:40:15 AM 31.8753 -92.7997 225° Southwest 424 488 38,000  Level Houston Center
Mon 11:41:17 AM 31.7964 -92.9014 228° Southwest 422 486 38,000  Level Houston Center
Mon 11:42:19 AM 31.7161 -93.0031 227° Southwest 426 490 38,000  Level Houston Center
Mon 11:43:21 AM 31.6369 -93.1044 227° Southwest 424 488 38,000  Level Houston Center
Mon 11:44:23 AM 31.5583 -93.2036 227° Southwest 417 480 38,000  Level Houston Center
Mon 11:45:25 AM 31.4764 -93.3075 227° Southwest 420 483 38,000 -145 Level Houston Center
Mon 11:46:27 AM 31.3967 -93.4078 227° Southwest 421 484 37,700 -726 Descending Houston Center
Mon 11:47:29 AM 31.3008 -93.5264 227° Southwest 421 484 36,500 -823 Descending Houston Center
Mon 11:48:31 AM 31.2217 -93.6247 227° Southwest 428 493 36,000 -242 Descending Houston Center
Mon 11:49:33 AM 31.1417 -93.7261 227° Southwest 427 491 36,000 -1,016 Level Houston Center
Mon 11:50:35 AM 31.0603 -93.8272 227° Southwest 429 494 33,900 -2,032 Descending Houston Center
Mon 11:51:37 AM 30.9808 -93.9261 227° Southwest 422 486 31,800 -2,226 Descending Houston Center
Mon 11:52:39 AM 30.8864 -94.0422 227° Southwest 416 479 29,300 -2,177 Descending Houston Center
Mon 11:53:41 AM 30.8094 -94.1347 226° Southwest 405 466 27,300 -1,935 Descending Houston Center
Mon 11:54:43 AM 30.7344 -94.2264 226° Southwest 389 448 25,300 -1,887 Descending Houston Center
Mon 11:55:45 AM 30.6639 -94.3119 226° Southwest 379 436 23,400 -1,790 Descending Houston Center
Mon 11:56:47 AM 30.5947 -94.3961 226° Southwest 367 422 21,600 -2,025 Descending Houston Center
Mon 11:57:05 AM 30.5625 -94.4356 227° Southwest 363 418 20,700 -2,129 Descending Houston Center
Mon 11:57:49 AM 30.5136 -94.4953 226° Southwest 356 410 19,400 -1,784 Descending Houston Center
Mon 11:58:19 AM 30.4819 -94.5358 228° Southwest 348 400 18,500 -1,742 Descending Houston Center
Mon 11:58:51 AM 30.4508 -94.5864 234° Southwest 343 395 17,600 -1,742 Descending Houston Center
Mon 11:59:21 AM 30.4219 -94.6308 233° Southwest 335 386 16,700 -1,548 Descending Houston Center
Mon 11:59:53 AM 30.4033 -94.6608 234° Southwest 337 388 16,000 -1,770 Descending Houston Center
Mon 12:00:22 PM 30.3669 -94.7156 232° Southwest 330 380 14,900 -2,129 Descending Houston Center
Mon 12:00:55 PM 30.3375 -94.7608 233° Southwest 326 375 13,800 -1,869 Descending Houston Center
Mon 12:01:23 PM 30.3103 -94.8028 233° Southwest 324 373 13,000 -774 Descending Houston Center
Mon 12:01:57 PM 30.2853 -94.8450 236° Southwest 322 371 13,000 -492 Level Houston Center
Mon 12:02:24 PM 30.2592 -94.8842 232° Southwest 311 358 12,500 -1,023 Descending Houston Center
Mon 12:03:25 PM 30.2058 -94.9658 233° Southwest 308 354 11,500 -928 Descending Houston Center
Mon 12:04:01 PM 30.1831 -95.0014 233° Southwest 304 350 11,000 -984 Descending Houston Center
Mon 12:04:26 PM 30.1544 -95.0422 231° Southwest 302 348 10,500 -952 Descending Houston Center
Mon 12:05:04 PM 30.1306 -95.0722 227° Southwest 294 338 10,000 -484 Descending Houston Center
Mon 12:05:28 PM 30.0875 -95.0917 201° Southwest 282 325 10,000  Level Houston Center
Mon 12:06:06 PM 30.0567 -95.1044 200° South 285 328 10,000  Level Houston Center
Mon 12:06:29 PM 30.0108 -95.1253 201° Southwest 301 346 10,000  Level Houston Center
Mon 12:07:08 PM 29.9628 -95.1461 201° Southwest 300 345 10,000  Level Houston Center
Mon 12:07:30 PM 29.9281 -95.1594 198° South 300 345 10,000 -97 Level Houston Center
Mon 12:08:10 PM 29.8853 -95.1792 202° Southwest 299 344 9,900 -787 Descending Houston Center
Mon 12:08:31 PM 29.8511 -95.1931 199° South 277 319 9,200 -1,355 Descending Houston Center
Mon 12:09:12 PM 29.8117 -95.2103 201° Southwest 287 330 8,500 -1,377 Descending Houston Center
Mon 12:09:32 PM 29.7783 -95.2236 199° South 276 318 7,800 -1,355 Descending Houston Center
Mon 12:10:14 PM 29.7411 -95.2406 202° Southwest 275 316 7,100 -1,161 Descending Houston Center
Mon 12:10:34 PM 29.7125 -95.2606 211° Southwest 267 307 6,600 -774 Descending Houston Center
Mon 12:11:16 PM 29.6783 -95.3025 227° Southwest 251 289 6,300 -492 Descending Houston Center
Mon 12:11:35 PM 29.6653 -95.3167 223° Southwest 229 264 6,100 -581 Descending Houston Center
Mon 12:12:18 PM 29.6358 -95.3542 228° Southwest 227 261 5,700 -689 Descending Houston Center
Mon 12:12:36 PM 29.6247 -95.3769 241° Southwest 225 259 5,400 -1,215 Descending Houston Center
Mon 12:13:37 PM 29.6714 -95.4292 316° Northwest 245 282 4,100 -962 Descending Houston Center
Mon 12:14:22 PM 29.7019 -95.4114 27° Northeast 210 242 3,700 -871 Descending Houston Center
Mon 12:14:39 PM 29.7167 -95.3972 40° Northeast 180 207 3,200 -1,452 Descending Houston Center
Mon 12:15:24 PM 29.7231 -95.3697 75° East 182 209 2,200 -1,056 Descending Houston Center
Mon 12:16:27 PM 29.6964 -95.3403 136° Southeast 149 171 1,300 -816 Descending Houston Center
Mon 12:17:29 PM 29.6661 -95.3042 134° Southeast 135 155 500 -581 Descending Houston Center
Mon 12:18:31 PM 29.6442 -95.2778 134° Southeast 132 152 100 -387 Descending Houston Center

Login

Don't have an account? Register now (free) for customized features, flight alerts, and more!